createdAt,value
2023-02-14T00:01:20.765Z,97.90
2023-02-14T00:03:49.358Z,98.10
2023-02-14T00:06:17.210Z,98.70
2023-02-14T00:08:45.188Z,97.60
2023-02-14T00:11:14.096Z,98.60
2023-02-14T00:14:02.342Z,99.50
2023-02-14T00:16:29.638Z,98.40
2023-02-14T00:19:03.785Z,99.10
2023-02-14T00:21:35.897Z,99.40
2023-02-14T00:24:09.090Z,97.60
2023-02-14T00:26:38.930Z,98.00
2023-02-14T00:29:08.079Z,98.70
2023-02-14T00:31:35.954Z,97.70
2023-02-14T00:34:04.411Z,97.00
2023-02-14T00:36:32.847Z,96.90
2023-02-14T00:39:02.034Z,97.50
2023-02-14T00:41:29.618Z,95.50
2023-02-14T00:43:56.988Z,97.00
2023-02-14T00:46:25.207Z,94.70
2023-02-14T00:48:52.868Z,93.80
2023-02-14T00:51:21.171Z,93.90
2023-02-14T00:53:51.555Z,95.80
2023-02-14T00:56:20.305Z,94.50
2023-02-14T00:58:47.691Z,93.90
2023-02-14T01:01:19.358Z,94.10
2023-02-14T01:03:47.426Z,92.10
2023-02-14T01:06:15.368Z,93.00
2023-02-14T01:08:42.798Z,93.00
2023-02-14T01:11:16.303Z,91.30
2023-02-14T01:13:44.227Z,91.40
2023-02-14T01:16:14.708Z,91.30
2023-02-14T01:18:43.149Z,91.40
2023-02-14T01:21:23.066Z,91.10
2023-02-14T01:23:53.260Z,91.10
2023-02-14T01:26:22.006Z,91.70
2023-02-14T01:28:50.917Z,92.50
2023-02-14T01:31:27.417Z,91.80
2023-02-14T01:33:58.653Z,92.70
2023-02-14T01:36:36.817Z,91.00
2023-02-14T01:39:07.765Z,91.10
2023-02-14T01:41:36.661Z,92.50
2023-02-14T01:44:06.939Z,92.00
2023-02-14T01:46:37.070Z,91.40
2023-02-14T01:49:34.032Z,90.60
2023-02-14T01:52:14.955Z,91.20
2023-02-14T01:55:04.532Z,90.90
2023-02-14T01:57:41.102Z,90.30
2023-02-14T02:00:29.307Z,90.10
2023-02-14T02:02:59.111Z,86.60
2023-02-14T02:05:27.503Z,83.70
2023-02-14T02:07:57.773Z,87.00
2023-02-14T02:10:28.672Z,87.10
2023-02-14T02:12:56.557Z,87.80
2023-02-14T02:15:27.368Z,87.30
2023-02-14T02:18:34.385Z,86.80
2023-02-14T02:21:41.362Z,88.20
2023-02-14T02:24:28.772Z,85.70
2023-02-14T02:27:26.035Z,87.40
2023-02-14T02:30:29.739Z,87.50
2023-02-14T02:33:36.814Z,88.10
2023-02-14T02:36:33.235Z,87.30
2023-02-14T02:39:40.175Z,87.90
2023-02-14T02:42:42.799Z,87.80
2023-02-14T02:45:32.844Z,89.00
2023-02-14T02:48:15.619Z,90.30
2023-02-14T02:51:09.445Z,91.10
2023-02-14T02:54:00.534Z,92.10
2023-02-14T02:56:52.443Z,93.00
2023-02-14T02:59:26.060Z,94.00
2023-02-14T03:02:55.714Z,94.50
2023-02-14T03:05:23.889Z,95.50
2023-02-14T03:07:51.839Z,96.20
2023-02-14T03:10:25.753Z,96.90
2023-02-14T03:13:34.063Z,97.50
2023-02-14T03:16:32.592Z,98.50
2023-02-14T03:19:38.174Z,99.00
2023-02-14T03:22:45.288Z,99.60
2023-02-14T03:25:43.850Z,99.90
2023-02-14T03:28:35.683Z,99.90
2023-02-14T03:31:25.297Z,99.90
2023-02-14T03:34:17.613Z,99.90
2023-02-14T03:36:52.972Z,99.90
2023-02-14T03:39:30.807Z,99.90
2023-02-14T03:42:06.198Z,99.90
2023-02-14T03:44:36.269Z,99.90
2023-02-14T03:47:14.722Z,99.90
2023-02-14T03:49:46.856Z,99.90
2023-02-14T03:52:15.815Z,99.90
2023-02-14T03:54:45.604Z,99.90
2023-02-14T03:57:23.977Z,99.90
2023-02-14T03:59:51.833Z,99.90
2023-02-14T04:02:42.934Z,99.90
2023-02-14T04:05:16.652Z,99.90
2023-02-14T04:07:47.122Z,99.90
2023-02-14T04:10:15.565Z,99.90
2023-02-14T04:12:42.942Z,99.90
2023-02-14T04:15:11.281Z,99.90
2023-02-14T04:17:58.482Z,99.90
2023-02-14T04:20:26.806Z,99.90
2023-02-14T04:22:54.505Z,99.90
2023-02-14T04:25:22.783Z,99.90
2023-02-14T04:27:49.983Z,99.90
2023-02-14T04:30:18.511Z,99.90
2023-02-14T04:32:45.871Z,99.90
2023-02-14T04:35:13.161Z,99.90
2023-02-14T04:37:40.364Z,99.90
2023-02-14T04:40:08.373Z,99.90
2023-02-14T04:42:35.675Z,99.90
2023-02-14T04:45:04.434Z,99.90
2023-02-14T04:47:31.734Z,99.90
2023-02-14T04:49:59.166Z,99.90
2023-02-14T04:52:26.401Z,99.90
2023-02-14T04:54:53.861Z,99.90
2023-02-14T04:57:21.589Z,99.90
2023-02-14T04:59:48.754Z,99.90
2023-02-14T05:02:16.001Z,99.90
2023-02-14T05:04:43.339Z,99.90
2023-02-14T05:07:10.689Z,99.90
2023-02-14T05:09:37.930Z,99.90
2023-02-14T05:12:05.324Z,99.90
2023-02-14T05:14:32.477Z,99.90
2023-02-14T05:16:59.641Z,99.90
2023-02-14T05:19:26.902Z,99.90
2023-02-14T05:21:54.250Z,99.90
2023-02-14T05:24:21.407Z,99.90
2023-02-14T05:26:48.649Z,99.90
2023-02-14T05:29:15.811Z,99.90
2023-02-14T05:31:43.133Z,99.90
2023-02-14T05:34:10.454Z,99.90
2023-02-14T05:36:37.728Z,99.90
2023-02-14T05:39:05.259Z,99.90
2023-02-14T05:41:32.556Z,99.90
2023-02-14T05:43:59.686Z,99.90
2023-02-14T05:46:26.961Z,99.90
2023-02-14T05:48:54.161Z,99.90
2023-02-14T05:51:21.318Z,99.90
2023-02-14T05:53:48.391Z,99.90
2023-02-14T05:56:15.670Z,99.90
2023-02-14T05:58:43.521Z,99.90
2023-02-14T06:01:10.761Z,99.90
2023-02-14T06:03:37.951Z,99.90
2023-02-14T06:06:05.373Z,99.90
2023-02-14T06:08:32.475Z,99.90
2023-02-14T06:11:00.084Z,99.90
2023-02-14T06:13:27.530Z,99.90
2023-02-14T06:15:54.843Z,99.90
2023-02-14T06:18:22.064Z,99.90
2023-02-14T06:20:49.213Z,99.90
2023-02-14T06:23:16.307Z,99.90
2023-02-14T06:25:43.497Z,99.90
2023-02-14T06:28:10.606Z,99.90
2023-02-14T06:30:38.045Z,99.90
2023-02-14T06:33:05.289Z,99.90
2023-02-14T06:35:32.495Z,99.90
2023-02-14T06:37:59.653Z,99.90
2023-02-14T06:40:26.877Z,99.90
2023-02-14T06:42:54.066Z,99.90
2023-02-14T06:45:21.253Z,99.90
2023-02-14T06:47:48.425Z,99.90
2023-02-14T06:50:15.641Z,99.90
2023-02-14T06:52:44.559Z,99.90
2023-02-14T06:55:13.298Z,99.90
2023-02-14T06:57:40.778Z,99.90
2023-02-14T07:00:10.159Z,99.90
2023-02-14T07:02:37.513Z,99.90
2023-02-14T07:05:05.044Z,99.90
2023-02-14T07:07:32.157Z,99.90
2023-02-14T07:09:59.444Z,99.90
2023-02-14T07:12:26.573Z,99.90
2023-02-14T07:14:53.845Z,99.90
2023-02-14T07:17:20.973Z,99.90
2023-02-14T07:19:48.206Z,99.90
2023-02-14T07:22:15.424Z,99.90
2023-02-14T07:24:42.757Z,99.90
2023-02-14T07:27:09.896Z,99.90
2023-02-14T07:29:37.563Z,99.90
2023-02-14T07:32:05.060Z,99.90
2023-02-14T07:34:33.143Z,99.90
2023-02-14T07:37:01.739Z,99.90
2023-02-14T07:39:28.964Z,99.90
2023-02-14T07:41:56.182Z,99.90
2023-02-14T07:44:27.053Z,99.90
2023-02-14T07:46:54.307Z,99.90
2023-02-14T07:49:21.948Z,99.90
2023-02-14T07:51:49.243Z,99.90
2023-02-14T07:54:16.355Z,99.90
2023-02-14T07:56:43.621Z,99.90
2023-02-14T07:59:10.885Z,99.90
2023-02-14T08:01:38.152Z,99.90
2023-02-14T08:04:05.563Z,99.90
2023-02-14T08:06:32.808Z,99.90
2023-02-14T08:09:00.124Z,99.90
2023-02-14T08:11:47.422Z,99.90
2023-02-14T08:14:14.711Z,99.90
2023-02-14T08:16:41.926Z,99.90
2023-02-14T08:19:09.164Z,99.90
2023-02-14T08:21:36.319Z,99.90
2023-02-14T08:24:03.639Z,99.90
2023-02-14T08:26:31.829Z,99.90
2023-02-14T08:28:59.037Z,99.90
2023-02-14T08:31:35.771Z,99.90
2023-02-14T08:34:05.036Z,99.90
2023-02-14T08:36:32.931Z,99.90
2023-02-14T08:39:00.247Z,99.90
2023-02-14T08:41:27.681Z,99.90
2023-02-14T08:43:54.897Z,99.90
2023-02-14T08:46:22.295Z,99.90
2023-02-14T08:48:54.442Z,99.90
2023-02-14T08:51:22.933Z,99.90
2023-02-14T08:53:52.010Z,99.90
2023-02-14T08:56:21.222Z,99.90
2023-02-14T08:58:51.707Z,99.90
2023-02-14T09:01:19.310Z,99.90
2023-02-14T09:03:46.668Z,99.90
2023-02-14T09:06:17.515Z,99.90
2023-02-14T09:08:46.892Z,99.90
2023-02-14T09:11:18.863Z,99.90
2023-02-14T09:13:46.618Z,99.90
2023-02-14T09:16:17.363Z,99.90
2023-02-14T09:18:45.068Z,99.90
2023-02-14T09:21:14.840Z,99.90
2023-02-14T09:23:42.715Z,99.90
2023-02-14T09:26:12.128Z,99.90
2023-02-14T09:28:40.587Z,99.90
2023-02-14T09:31:32.355Z,99.90
2023-02-14T09:33:59.666Z,99.90
2023-02-14T09:36:46.786Z,99.90
2023-02-14T09:39:14.022Z,99.90
2023-02-14T09:42:13.350Z,99.90
2023-02-14T09:44:45.599Z,99.90
2023-02-14T09:47:36.568Z,99.90
2023-02-14T09:50:11.512Z,99.90
2023-02-14T09:52:38.897Z,99.90
2023-02-14T09:55:14.108Z,99.90
2023-02-14T09:58:03.658Z,99.90
2023-02-14T10:00:48.861Z,99.90
2023-02-14T10:03:44.912Z,99.90
2023-02-14T10:06:45.242Z,99.90
2023-02-14T10:09:39.518Z,99.90
2023-02-14T10:12:20.978Z,99.90
2023-02-14T10:14:49.818Z,99.90
2023-02-14T10:17:41.882Z,99.80
2023-02-14T10:20:22.357Z,98.70
2023-02-14T10:23:17.867Z,98.10
2023-02-14T10:25:52.534Z,97.40
2023-02-14T10:28:26.876Z,97.60
2023-02-14T10:31:19.650Z,98.00
2023-02-14T10:34:00.906Z,97.60
2023-02-14T10:36:55.576Z,95.60
2023-02-14T10:39:47.590Z,95.80
2023-02-14T10:42:47.467Z,96.30
2023-02-14T10:45:32.455Z,95.80
2023-02-14T10:48:39.667Z,95.20
2023-02-14T10:51:38.050Z,95.70
2023-02-14T10:54:21.520Z,94.80
2023-02-14T10:57:28.477Z,95.80
2023-02-14T11:00:08.651Z,95.80
2023-02-14T11:02:43.176Z,95.20
2023-02-14T11:05:30.243Z,94.80
2023-02-14T11:07:59.290Z,94.70
2023-02-14T11:10:31.685Z,93.80
2023-02-14T11:12:58.979Z,94.10
2023-02-14T11:15:36.170Z,93.80
2023-02-14T11:18:24.811Z,93.90
2023-02-14T11:21:14.837Z,93.20
2023-02-14T11:23:45.070Z,93.90
2023-02-14T11:26:26.649Z,93.00
2023-02-14T11:29:03.679Z,93.10
2023-02-14T11:31:38.092Z,93.60
2023-02-14T11:34:21.859Z,93.10
2023-02-14T11:36:49.219Z,92.90
2023-02-14T11:39:31.895Z,93.00
2023-02-14T11:42:04.432Z,91.90
2023-02-14T11:44:34.278Z,91.80
2023-02-14T11:47:29.065Z,92.10
2023-02-14T11:50:02.310Z,91.60
2023-02-14T11:52:30.841Z,91.40
2023-02-14T11:54:59.288Z,90.00
2023-02-14T11:57:38.005Z,90.50
2023-02-14T12:00:17.443Z,90.20
2023-02-14T12:02:50.009Z,90.60
2023-02-14T12:05:28.155Z,89.70
2023-02-14T12:07:59.131Z,88.50
2023-02-14T12:10:35.700Z,88.90
2023-02-14T12:13:25.805Z,88.50
2023-02-14T12:15:55.569Z,87.60
2023-02-14T12:18:46.434Z,88.90
2023-02-14T12:21:49.183Z,89.20
2023-02-14T12:24:37.504Z,87.30
2023-02-14T12:27:26.932Z,87.20
2023-02-14T12:30:12.109Z,86.10
2023-02-14T12:32:46.929Z,86.80
2023-02-14T12:35:17.938Z,87.00
2023-02-14T12:38:24.870Z,89.10
2023-02-14T12:41:29.047Z,88.60
2023-02-14T12:44:23.130Z,88.90
2023-02-14T12:47:18.802Z,90.90
2023-02-14T12:50:25.727Z,91.20
2023-02-14T12:53:32.804Z,91.50
2023-02-14T12:56:16.303Z,92.10
2023-02-14T12:58:59.591Z,91.80
2023-02-14T13:02:05.329Z,92.30
2023-02-14T13:04:59.814Z,92.50
2023-02-14T13:08:06.811Z,92.60
2023-02-14T13:10:57.894Z,91.80
2023-02-14T13:13:57.193Z,91.90
2023-02-14T13:16:41.100Z,90.80
2023-02-14T13:19:48.079Z,90.40
2023-02-14T13:22:20.840Z,87.30
2023-02-14T13:24:52.042Z,90.10
2023-02-14T13:27:23.626Z,90.00
2023-02-14T13:29:58.030Z,90.10
2023-02-14T13:32:30.618Z,90.20
2023-02-14T13:34:58.946Z,90.10
2023-02-14T13:37:28.219Z,86.50
2023-02-14T13:39:59.193Z,84.30
2023-02-14T13:42:53.801Z,85.30
2023-02-14T13:45:55.896Z,84.70
2023-02-14T13:48:27.493Z,84.50
2023-02-14T13:51:04.769Z,84.80
2023-02-14T13:53:52.830Z,83.30
2023-02-14T13:56:35.425Z,84.00
2023-02-14T13:59:06.338Z,82.90
2023-02-14T14:01:50.284Z,81.60
2023-02-14T14:04:37.387Z,81.40
2023-02-14T14:07:27.262Z,82.00
2023-02-14T14:09:57.993Z,82.10
2023-02-14T14:12:41.812Z,79.10
2023-02-14T14:15:15.058Z,79.50
2023-02-14T14:17:46.936Z,78.40
2023-02-14T14:20:42.558Z,78.40
2023-02-14T14:23:31.575Z,77.90
2023-02-14T14:26:00.115Z,74.60
2023-02-14T14:28:30.975Z,75.80
2023-02-14T14:30:58.374Z,74.90
2023-02-14T14:33:34.125Z,75.20
2023-02-14T14:36:08.287Z,78.10
2023-02-14T14:38:47.304Z,73.90
2023-02-14T14:41:14.637Z,72.20
2023-02-14T14:43:42.157Z,73.00
2023-02-14T14:46:12.592Z,72.90
2023-02-14T14:48:45.597Z,75.50
2023-02-14T14:51:34.829Z,73.70
2023-02-14T14:54:15.749Z,70.20
2023-02-14T14:56:51.992Z,70.00
2023-02-14T14:59:40.048Z,67.80
2023-02-14T15:02:30.041Z,66.10
2023-02-14T15:04:57.309Z,64.60
2023-02-14T15:07:35.079Z,67.50
2023-02-14T15:10:03.341Z,68.80
2023-02-14T15:12:50.544Z,68.30
2023-02-14T15:15:19.134Z,67.40
2023-02-14T15:17:46.988Z,68.60
2023-02-14T15:20:21.366Z,67.20
2023-02-14T15:22:50.926Z,65.30
2023-02-14T15:25:25.798Z,64.90
2023-02-14T15:27:53.272Z,66.20
2023-02-14T15:30:34.442Z,65.10
2023-02-14T15:33:07.324Z,65.30
2023-02-14T15:35:39.033Z,66.20
2023-02-14T15:38:07.491Z,65.70
2023-02-14T15:40:35.826Z,65.50
2023-02-14T15:43:16.630Z,67.30
2023-02-14T15:45:46.546Z,68.70
2023-02-14T15:48:19.729Z,68.20
2023-02-14T15:50:53.173Z,69.40
2023-02-14T15:53:33.809Z,69.40
2023-02-14T15:56:26.140Z,70.10
2023-02-14T15:59:20.748Z,72.20
2023-02-14T16:02:00.691Z,71.40
2023-02-14T16:04:30.853Z,71.70
2023-02-14T16:07:23.107Z,71.40
2023-02-14T16:09:51.826Z,70.40
2023-02-14T16:12:31.728Z,71.80
2023-02-14T16:15:09.585Z,71.60
2023-02-14T16:17:36.844Z,71.50
2023-02-14T16:20:40.414Z,71.30
2023-02-14T16:23:28.969Z,71.50
2023-02-14T16:25:57.702Z,72.40
2023-02-14T16:28:29.952Z,72.70
2023-02-14T16:30:59.053Z,74.20
2023-02-14T16:33:30.163Z,74.40
2023-02-14T16:36:18.045Z,74.20
2023-02-14T16:38:46.261Z,74.90
2023-02-14T16:41:17.634Z,75.40
2023-02-14T16:43:45.476Z,75.70
2023-02-14T16:46:16.270Z,76.20
2023-02-14T16:48:45.905Z,76.70
2023-02-14T16:51:14.388Z,77.20
2023-02-14T16:53:42.898Z,79.10
2023-02-14T16:56:20.295Z,78.70
2023-02-14T16:58:48.119Z,78.80
2023-02-14T17:01:15.444Z,77.70
2023-02-14T17:03:43.556Z,76.80
2023-02-14T17:06:16.035Z,77.00
2023-02-14T17:08:45.476Z,78.00
2023-02-14T17:11:12.765Z,77.90
2023-02-14T17:13:44.577Z,79.00
2023-02-14T17:16:15.981Z,78.80
2023-02-14T17:18:47.873Z,79.30
2023-02-14T17:21:16.888Z,79.60
2023-02-14T17:23:44.019Z,79.10
2023-02-14T17:26:11.427Z,79.70
2023-02-14T17:28:38.688Z,80.00
2023-02-14T17:31:06.658Z,80.90
2023-02-14T17:33:34.807Z,80.70
2023-02-14T17:36:11.798Z,80.70
2023-02-14T17:38:40.056Z,81.50
2023-02-14T17:41:16.656Z,81.20
2023-02-14T17:43:44.172Z,82.90
2023-02-14T17:46:11.766Z,83.40
2023-02-14T17:48:39.076Z,83.00
2023-02-14T17:51:08.347Z,83.20
2023-02-14T17:53:36.558Z,84.10
2023-02-14T17:56:10.883Z,85.30
2023-02-14T17:58:38.791Z,85.20
2023-02-14T18:01:08.404Z,85.60
2023-02-14T18:03:36.083Z,85.20
2023-02-14T18:06:04.391Z,85.30
2023-02-14T18:08:35.440Z,85.80
2023-02-14T18:11:07.503Z,85.90
2023-02-14T18:13:34.812Z,85.70
2023-02-14T18:16:04.828Z,86.50
2023-02-14T18:18:32.534Z,87.70
2023-02-14T18:21:02.644Z,87.90
2023-02-14T18:23:32.701Z,86.80
2023-02-14T18:26:04.629Z,86.40
2023-02-14T18:28:33.786Z,88.10
2023-02-14T18:31:09.963Z,87.10
2023-02-14T18:33:37.775Z,87.00
2023-02-14T18:36:15.126Z,85.90
2023-02-14T18:38:44.740Z,85.90
2023-02-14T18:41:15.808Z,86.10
2023-02-14T18:43:43.605Z,86.30
2023-02-14T18:46:13.357Z,87.20
2023-02-14T18:48:41.099Z,86.80
2023-02-14T18:51:10.133Z,89.70
2023-02-14T18:53:39.272Z,90.20
2023-02-14T18:56:08.565Z,89.80
2023-02-14T18:58:36.469Z,90.20
2023-02-14T19:01:25.445Z,90.50
2023-02-14T19:03:54.624Z,90.60
2023-02-14T19:06:23.492Z,90.60
2023-02-14T19:08:51.350Z,90.80
2023-02-14T19:11:23.442Z,90.50
2023-02-14T19:13:55.911Z,89.20
2023-02-14T19:16:29.355Z,89.50
2023-02-14T19:18:56.692Z,88.60
2023-02-14T19:21:30.759Z,88.20
2023-02-14T19:23:58.579Z,87.70
2023-02-14T19:26:29.490Z,87.30
2023-02-14T19:29:02.327Z,87.80
2023-02-14T19:31:30.838Z,88.20
2023-02-14T19:33:58.043Z,87.80
2023-02-14T19:36:25.319Z,88.00
2023-02-14T19:38:53.489Z,88.00
2023-02-14T19:41:31.193Z,88.40
2023-02-14T19:44:00.761Z,89.90
2023-02-14T19:46:29.190Z,89.00
2023-02-14T19:48:57.621Z,88.70
2023-02-14T19:51:29.079Z,88.50
2023-02-14T19:53:58.475Z,88.30
2023-02-14T19:56:29.414Z,89.30
2023-02-14T19:58:57.027Z,89.30
2023-02-14T20:01:46.425Z,89.20
2023-02-14T20:04:17.673Z,89.20
2023-02-14T20:06:46.726Z,89.40
2023-02-14T20:09:15.283Z,89.90
2023-02-14T20:11:51.261Z,90.10
2023-02-14T20:14:24.387Z,90.30
2023-02-14T20:16:53.219Z,90.70
2023-02-14T20:19:23.238Z,91.00
2023-02-14T20:21:51.182Z,90.90
2023-02-14T20:24:21.726Z,91.20
2023-02-14T20:26:50.468Z,91.40
2023-02-14T20:29:18.794Z,91.50
2023-02-14T20:31:49.284Z,91.70
2023-02-14T20:34:17.448Z,91.90
2023-02-14T20:36:49.766Z,91.90
2023-02-14T20:39:17.135Z,92.30
2023-02-14T20:41:49.880Z,92.30
2023-02-14T20:44:21.857Z,92.40
2023-02-14T20:46:51.842Z,92.90
2023-02-14T20:49:20.585Z,92.60
2023-02-14T20:51:52.175Z,93.60
2023-02-14T20:54:22.316Z,93.80
2023-02-14T20:56:51.012Z,93.80
2023-02-14T20:59:38.258Z,94.00
2023-02-14T21:02:05.456Z,94.30
2023-02-14T21:04:32.597Z,93.90
2023-02-14T21:07:04.178Z,94.20
2023-02-14T21:09:33.061Z,94.30
2023-02-14T21:12:00.197Z,94.30
2023-02-14T21:14:27.519Z,94.30
2023-02-14T21:16:54.593Z,94.10
2023-02-14T21:19:22.285Z,94.20
2023-02-14T21:21:49.618Z,93.90
2023-02-14T21:24:17.000Z,94.10
2023-02-14T21:26:45.179Z,94.10
2023-02-14T21:29:12.545Z,94.10
2023-02-14T21:31:40.081Z,94.50
2023-02-14T21:34:07.372Z,94.40
2023-02-14T21:36:38.158Z,95.30
2023-02-14T21:39:06.509Z,95.50
2023-02-14T21:41:35.436Z,95.10
2023-02-14T21:44:04.513Z,95.40
2023-02-14T21:46:36.058Z,95.50
2023-02-14T21:49:25.219Z,95.40
2023-02-14T21:51:52.580Z,95.60
2023-02-14T21:54:19.767Z,95.50
2023-02-14T21:56:47.233Z,95.50
2023-02-14T21:59:14.368Z,95.60
2023-02-14T22:01:42.718Z,95.60
2023-02-14T22:04:12.340Z,95.80
2023-02-14T22:06:41.173Z,95.70
2023-02-14T22:09:09.629Z,95.70
2023-02-14T22:11:36.999Z,95.70
2023-02-14T22:14:04.632Z,95.60
2023-02-14T22:16:32.132Z,95.90
2023-02-14T22:18:59.334Z,96.10
2023-02-14T22:21:27.902Z,96.10
2023-02-14T22:23:55.873Z,96.20
2023-02-14T22:26:25.959Z,96.20
2023-02-14T22:28:59.322Z,96.20
2023-02-14T22:31:28.697Z,96.50
2023-02-14T22:33:56.207Z,96.20
2023-02-14T22:36:23.604Z,96.30
2023-02-14T22:38:50.812Z,96.30
2023-02-14T22:41:20.802Z,96.70
2023-02-14T22:43:48.781Z,96.60
2023-02-14T22:46:19.879Z,96.70
2023-02-14T22:48:48.474Z,96.80
2023-02-14T22:51:30.456Z,96.90
2023-02-14T22:54:00.788Z,97.10
2023-02-14T22:56:31.261Z,97.20
2023-02-14T22:59:02.438Z,97.40
2023-02-14T23:01:29.703Z,97.80
2023-02-14T23:03:58.298Z,98.10
2023-02-14T23:06:27.227Z,98.60
2023-02-14T23:08:55.309Z,99.10
2023-02-14T23:11:25.766Z,99.60
2023-02-14T23:14:12.839Z,99.90
2023-02-14T23:17:00.636Z,99.90
2023-02-14T23:19:54.815Z,99.90
2023-02-14T23:22:29.646Z,99.90
2023-02-14T23:24:59.185Z,99.90
2023-02-14T23:27:38.147Z,99.90
2023-02-14T23:30:09.720Z,99.90
2023-02-14T23:32:37.024Z,99.90
2023-02-14T23:35:04.466Z,99.90
2023-02-14T23:37:31.680Z,99.90
2023-02-14T23:39:58.823Z,99.90
2023-02-14T23:42:26.151Z,99.90
2023-02-14T23:44:53.228Z,99.90
2023-02-14T23:47:20.489Z,99.90
2023-02-14T23:49:47.629Z,99.90
2023-02-14T23:52:14.912Z,99.90
2023-02-14T23:54:42.143Z,99.90
2023-02-14T23:57:09.894Z,99.90
2023-02-14T23:59:37.082Z,99.90
